Taylorville, Pennsylvania
Current Conditions -  °F | °C
As of 10:15 AM on Wednesday 22 Oct 2014 (Local Time) from KHZL Reporting Station
Drizzle Drizzle  
Wind Chill: 43°   Ceiling: 300
Heat Index: 48°   Visibility: 10mi
Dew Point: 46°   Wind: 12mph
Humidity: 93%   Direction: 360°N
Pressure: 30.01"   Gusts: 20mph
Location:  40.7564°N, 76.3531°W
Report Text: KHZL 221415Z AUTO 36010G17KT 10SM DZ OVC003 09/08 A3001 RMK AO2 LTG DSNT S
Loading
Personal Weather Stations






























Interactive Weather Map
Tropical Storm Tracking
New forecast layout! Learn more

10-Day Weather Forecast

Advertisements
Track Severe Weather on mobile